Lamona, Washington
Current Conditions -  °F | °C
As of 11:52 AM on Saturday 20 Dec 2014 (Local Time) from KMWH Reporting Station
Overcast Overcast  
Wind Chill: 38°   Ceiling: 3600
Heat Index: 43°   Visibility: 10mi
Dew Point: 42°   Wind: 8mph
Humidity: 97%   Direction: 160°SSE
Pressure: 29.74"   Gusts: NA
Location:  47.36°N, 118.48°W
Report Text: KMWH 201952Z 16007KT 10SM BKN036 BKN050 OVC095 06/06 A2974 RMK AO2 RAE1854 SLP078 P0000 T00610056
Loading
Personal Weather Stations






























Interactive Weather Map New forecast layout! Learn more

10-Day Weather Forecast

Advertisements
Track Severe Weather on mobile